createdAt,value
2018-01-15T00:01:13.880Z,47.75
2018-01-15T00:03:41.342Z,43.03
2018-01-15T00:06:08.843Z,46.13
2018-01-15T00:08:36.434Z,39.70
2018-01-15T00:11:03.914Z,42.78
2018-01-15T00:13:31.372Z,43.10
2018-01-15T00:15:58.857Z,40.75
2018-01-15T00:18:26.463Z,40.00
2018-01-15T00:20:53.939Z,49.30
2018-01-15T00:23:21.406Z,44.50
2018-01-15T00:25:48.875Z,45.72
2018-01-15T00:28:16.495Z,42.13
2018-01-15T00:30:44.023Z,41.72
2018-01-15T00:33:11.557Z,45.17
2018-01-15T00:35:39.038Z,44.72
2018-01-15T00:38:06.543Z,42.72
2018-01-15T00:40:34.118Z,44.83
2018-01-15T00:43:01.648Z,48.13
2018-01-15T00:45:29.136Z,43.30
2018-01-15T00:47:56.621Z,42.42
2018-01-15T00:50:24.104Z,49.25
2018-01-15T00:52:51.584Z,41.05
2018-01-15T00:55:19.060Z,48.35
2018-01-15T00:57:46.537Z,51.13
2018-01-15T01:00:13.993Z,46.13
2018-01-15T01:02:41.508Z,40.97
2018-01-15T01:05:08.977Z,47.00
2018-01-15T01:07:36.449Z,43.63
2018-01-15T01:10:04.000Z,48.63
2018-01-15T01:12:31.467Z,44.92
2018-01-15T01:14:58.946Z,46.53
2018-01-15T01:17:26.442Z,51.22
2018-01-15T01:19:53.921Z,49.65
2018-01-15T01:22:21.388Z,48.95
2018-01-15T01:24:49.057Z,48.72
2018-01-15T01:27:16.683Z,45.60
2018-01-15T01:29:44.153Z,48.90
2018-01-15T01:32:11.644Z,49.08
2018-01-15T01:34:39.109Z,52.15
2018-01-15T01:37:06.618Z,50.22
2018-01-15T01:39:34.111Z,50.20
2018-01-15T01:42:01.585Z,48.30
2018-01-15T01:44:29.063Z,48.85
2018-01-15T01:46:56.547Z,49.58
2018-01-15T01:49:24.011Z,50.12
2018-01-15T01:51:51.514Z,55.15
2018-01-15T01:54:18.969Z,48.80
2018-01-15T01:56:46.436Z,51.55
2018-01-15T01:59:13.929Z,51.70
2018-01-15T02:01:41.395Z,48.40
2018-01-15T02:04:08.925Z,48.67
2018-01-15T02:06:36.402Z,51.75
2018-01-15T02:09:03.898Z,50.10
2018-01-15T02:11:31.388Z,51.40
2018-01-15T02:13:58.860Z,51.20
2018-01-15T02:16:26.306Z,47.90
2018-01-15T02:18:53.770Z,50.20
2018-01-15T02:21:21.273Z,48.03
2018-01-15T02:23:48.770Z,51.85
2018-01-15T02:26:16.405Z,49.13
2018-01-15T02:28:43.868Z,52.95
2018-01-15T02:31:12.318Z,47.65
2018-01-15T02:33:39.784Z,53.10
2018-01-15T02:36:07.276Z,46.78
2018-01-15T02:38:35.140Z,52.22
2018-01-15T02:41:02.617Z,45.78
2018-01-15T02:43:30.132Z,45.80
2018-01-15T02:45:57.603Z,44.25
2018-01-15T02:48:25.087Z,47.90
2018-01-15T02:50:52.605Z,42.90
2018-01-15T02:53:20.077Z,50.47
2018-01-15T02:55:47.561Z,47.97
2018-01-15T02:58:15.097Z,50.35
2018-01-15T03:00:42.601Z,49.08
2018-01-15T03:03:10.096Z,50.00
2018-01-15T03:05:37.557Z,47.80
2018-01-15T03:08:05.030Z,49.50
2018-01-15T03:10:32.505Z,49.25
2018-01-15T03:12:59.958Z,44.58
2018-01-15T03:15:27.434Z,48.45
2018-01-15T03:17:54.905Z,46.37
2018-01-15T03:20:22.403Z,49.05
2018-01-15T03:22:50.392Z,47.00
2018-01-15T03:25:17.864Z,53.75
2018-01-15T03:27:45.331Z,43.40
2018-01-15T03:30:12.801Z,47.72
2018-01-15T03:32:40.296Z,43.28
2018-01-15T03:35:07.771Z,47.25
2018-01-15T03:37:35.390Z,53.42
2018-01-15T03:40:02.894Z,45.72
2018-01-15T03:42:30.392Z,46.97
2018-01-15T03:44:57.846Z,46.58
2018-01-15T03:47:25.303Z,45.83
2018-01-15T03:49:52.760Z,45.58
2018-01-15T03:52:20.250Z,44.78
2018-01-15T03:54:47.811Z,49.33
2018-01-15T03:57:15.349Z,45.45
2018-01-15T03:59:42.826Z,45.12
2018-01-15T04:02:10.335Z,51.40
2018-01-15T04:04:37.918Z,44.97
2018-01-15T04:07:05.390Z,52.13
2018-01-15T04:09:32.859Z,52.47
2018-01-15T04:12:00.345Z,52.58
2018-01-15T04:14:27.819Z,53.35
2018-01-15T04:16:55.285Z,47.20
2018-01-15T04:19:22.750Z,42.25
2018-01-15T04:21:50.208Z,44.80
2018-01-15T04:24:17.690Z,46.35
2018-01-15T04:26:45.167Z,51.22
2018-01-15T04:29:12.628Z,49.90
2018-01-15T04:31:40.091Z,45.30
2018-01-15T04:34:07.542Z,45.45
2018-01-15T04:36:35.048Z,45.60
2018-01-15T04:39:02.526Z,46.28
2018-01-15T04:41:30.005Z,49.05
2018-01-15T04:43:57.494Z,52.85
2018-01-15T04:46:24.988Z,47.75
2018-01-15T04:48:52.454Z,47.35
2018-01-15T04:51:20.094Z,46.92
2018-01-15T04:53:47.582Z,49.50
2018-01-15T04:56:15.051Z,47.78
2018-01-15T04:58:42.519Z,46.70
2018-01-15T05:01:10.062Z,50.83
2018-01-15T05:03:37.509Z,46.00
2018-01-15T05:06:04.975Z,51.47
2018-01-15T05:08:32.464Z,51.97
2018-01-15T05:10:59.960Z,49.75
2018-01-15T05:13:27.442Z,45.30
2018-01-15T05:15:54.963Z,49.08
2018-01-15T05:18:22.435Z,48.35
2018-01-15T05:20:49.918Z,49.95
2018-01-15T05:23:17.380Z,48.20
2018-01-15T05:25:44.907Z,46.22
2018-01-15T05:28:12.367Z,47.47
2018-01-15T05:30:39.876Z,49.03
2018-01-15T05:33:07.376Z,50.97
2018-01-15T05:35:34.836Z,51.63
2018-01-15T05:38:02.338Z,49.50
2018-01-15T05:40:29.849Z,56.53
2018-01-15T05:42:57.320Z,55.50
2018-01-15T05:45:24.889Z,57.13
2018-01-15T05:47:52.357Z,53.38
2018-01-15T05:50:20.036Z,58.65
2018-01-15T05:55:21.303Z,55.10
2018-01-15T05:57:48.827Z,47.78
2018-01-15T06:00:16.303Z,54.88
2018-01-15T06:02:43.772Z,54.60
2018-01-15T06:05:11.271Z,56.53
2018-01-15T06:07:38.739Z,63.03
2018-01-15T06:10:06.200Z,52.47
2018-01-15T06:12:33.671Z,60.97
2018-01-15T06:15:01.128Z,60.88
2018-01-15T06:17:28.620Z,62.67
2018-01-15T06:19:56.121Z,56.00
2018-01-15T06:22:23.577Z,59.90
2018-01-15T06:24:51.709Z,52.47
2018-01-15T06:27:19.263Z,54.50
2018-01-15T06:29:46.726Z,56.55
2018-01-15T06:32:14.232Z,54.38
2018-01-15T06:34:43.106Z,58.83
2018-01-15T06:37:10.985Z,62.78
2018-01-15T06:39:38.547Z,59.92
2018-01-15T06:42:06.088Z,54.72
2018-01-15T06:44:33.613Z,65.10
2018-01-15T06:47:01.171Z,54.83
2018-01-15T06:49:28.685Z,54.35
2018-01-15T06:51:56.151Z,51.33
2018-01-15T06:54:23.657Z,55.83
2018-01-15T06:56:51.146Z,55.60
2018-01-15T06:59:18.701Z,56.10
2018-01-15T07:01:46.177Z,54.88
2018-01-15T07:04:13.670Z,54.58
2018-01-15T07:06:41.150Z,57.53
2018-01-15T07:09:08.631Z,50.97
2018-01-15T07:11:36.112Z,48.20
2018-01-15T07:14:03.574Z,50.97
2018-01-15T07:16:31.079Z,47.75
2018-01-15T07:18:58.539Z,49.08
2018-01-15T07:21:26.000Z,53.53
2018-01-15T07:23:53.499Z,60.80
2018-01-15T07:26:20.963Z,52.85
2018-01-15T07:28:48.462Z,47.70
2018-01-15T07:31:15.936Z,46.50
2018-01-15T07:33:43.468Z,48.05
2018-01-15T07:36:10.915Z,44.22
2018-01-15T07:38:38.504Z,44.28
2018-01-15T07:41:06.010Z,41.05
2018-01-15T07:43:33.473Z,46.67
2018-01-15T07:46:00.967Z,43.30
2018-01-15T07:48:28.762Z,43.15
2018-01-15T07:50:56.294Z,45.88
2018-01-15T07:53:23.783Z,42.00
2018-01-15T07:55:51.250Z,43.35
2018-01-15T07:58:18.882Z,37.30
2018-01-15T08:00:46.487Z,44.17
2018-01-15T08:03:14.088Z,36.72
2018-01-15T08:05:41.572Z,44.08
2018-01-15T08:08:09.035Z,32.58
2018-01-15T08:10:37.325Z,36.60
2018-01-15T08:13:04.801Z,35.28
2018-01-15T08:15:32.288Z,36.78
2018-01-15T08:17:59.756Z,35.38
2018-01-15T08:20:27.233Z,34.42
2018-01-15T08:22:54.715Z,36.22
2018-01-15T08:25:22.171Z,34.53
2018-01-15T08:27:49.652Z,34.95
2018-01-15T08:30:17.122Z,32.90
2018-01-15T08:32:44.570Z,33.20
2018-01-15T08:35:12.072Z,33.33
2018-01-15T08:37:39.530Z,34.10
2018-01-15T08:40:07.018Z,34.50
2018-01-15T08:42:34.479Z,31.37
2018-01-15T08:45:01.959Z,34.22
2018-01-15T08:47:29.483Z,31.37
2018-01-15T08:49:56.974Z,33.65
2018-01-15T08:52:24.430Z,30.52
2018-01-15T08:54:51.890Z,29.80
2018-01-15T08:57:19.493Z,32.38
2018-01-15T08:59:46.951Z,30.00
2018-01-15T09:02:14.446Z,34.00
2018-01-15T09:04:41.921Z,35.05
2018-01-15T09:07:09.399Z,30.10
2018-01-15T09:09:36.886Z,29.58
2018-01-15T09:12:04.396Z,27.15
2018-01-15T09:14:32.779Z,33.53
2018-01-15T09:17:00.298Z,26.77
2018-01-15T09:19:27.766Z,24.25
2018-01-15T09:21:55.343Z,27.52
2018-01-15T09:24:24.803Z,27.00
2018-01-15T09:26:52.314Z,27.40
2018-01-15T09:29:19.784Z,29.85
2018-01-15T09:31:47.253Z,26.25
2018-01-15T09:34:14.745Z,28.62
2018-01-15T09:36:42.225Z,32.38
2018-01-15T09:39:09.685Z,27.85
2018-01-15T09:41:37.171Z,44.60
2018-01-15T09:44:04.646Z,26.67
2018-01-15T09:46:32.195Z,28.65
2018-01-15T09:48:59.684Z,27.70
2018-01-15T09:51:27.159Z,24.95
2018-01-15T09:53:54.630Z,27.13
2018-01-15T09:56:22.118Z,23.70
2018-01-15T09:58:49.588Z,23.13
2018-01-15T10:01:17.109Z,28.45
2018-01-15T10:03:44.602Z,25.90
2018-01-15T10:06:12.098Z,23.20
2018-01-15T10:08:39.658Z,27.42
2018-01-15T10:11:07.124Z,25.95
2018-01-15T10:13:34.627Z,24.10
2018-01-15T10:16:02.109Z,22.50
2018-01-15T10:18:29.776Z,23.73
2018-01-15T10:20:57.262Z,22.02
2018-01-15T10:23:24.714Z,22.87
2018-01-15T10:25:52.203Z,20.67
2018-01-15T10:28:20.214Z,18.40
2018-01-15T10:30:47.706Z,20.27
2018-01-15T10:33:15.214Z,25.45
2018-01-15T10:35:42.714Z,22.73
2018-01-15T10:38:10.281Z,22.08
2018-01-15T10:40:37.743Z,22.58
2018-01-15T10:43:05.201Z,18.53
2018-01-15T10:45:32.682Z,18.92
2018-01-15T10:48:00.138Z,18.20
2018-01-15T10:50:27.624Z,21.20
2018-01-15T10:52:55.100Z,19.10
2018-01-15T10:55:22.589Z,18.17
2018-01-15T10:57:50.069Z,20.63
2018-01-15T11:00:17.859Z,19.07
2018-01-15T11:02:45.321Z,17.53
2018-01-15T11:05:12.801Z,18.07
2018-01-15T11:07:40.254Z,17.43
2018-01-15T11:10:07.739Z,16.73
2018-01-15T11:12:35.211Z,16.43
2018-01-15T11:15:02.671Z,17.57
2018-01-15T11:17:30.155Z,19.17
2018-01-15T11:19:57.611Z,15.90
2018-01-15T11:22:25.079Z,18.47
2018-01-15T11:24:52.622Z,17.90
2018-01-15T11:27:20.458Z,17.47
2018-01-15T11:29:47.917Z,16.40
2018-01-15T11:32:15.433Z,17.67
2018-01-15T11:34:42.883Z,16.80
2018-01-15T11:37:10.398Z,15.00
2018-01-15T11:39:37.849Z,19.77
2018-01-15T11:42:05.342Z,15.90
2018-01-15T11:44:32.838Z,23.27
2018-01-15T11:47:00.324Z,18.03
2018-01-15T11:49:27.818Z,15.87
2018-01-15T11:51:55.301Z,17.27
2018-01-15T11:54:22.776Z,15.23
2018-01-15T11:56:50.261Z,24.57
2018-01-15T11:59:17.762Z,14.50
2018-01-15T12:01:45.244Z,15.13
2018-01-15T12:04:12.764Z,17.03
2018-01-15T12:06:40.233Z,13.90
2018-01-15T12:09:07.695Z,12.37
2018-01-15T12:11:35.265Z,13.03
2018-01-15T12:14:02.793Z,15.60
2018-01-15T12:16:32.375Z,13.87
2018-01-15T12:18:59.929Z,16.93
2018-01-15T12:21:28.028Z,14.40
2018-01-15T12:23:55.550Z,18.60
2018-01-15T12:26:23.090Z,15.40
2018-01-15T12:28:50.554Z,16.97
2018-01-15T12:31:18.032Z,16.50
2018-01-15T12:33:45.518Z,21.50
2018-01-15T12:36:13.011Z,16.17
2018-01-15T12:38:41.792Z,17.07
2018-01-15T12:41:09.391Z,18.17
2018-01-15T12:43:36.919Z,14.00
2018-01-15T12:46:04.449Z,15.57
2018-01-15T12:48:33.150Z,19.90
2018-01-15T12:51:00.632Z,17.97
2018-01-15T12:53:28.199Z,16.30
2018-01-15T12:55:55.755Z,15.87
2018-01-15T12:58:23.322Z,15.67
2018-01-15T13:00:50.841Z,17.97
2018-01-15T13:03:18.513Z,14.80
2018-01-15T13:05:51.408Z,13.77
2018-01-15T13:11:25.035Z,13.45
2018-01-15T13:13:54.561Z,12.93
2018-01-15T13:16:23.781Z,12.30
2018-01-15T13:18:53.040Z,19.47
2018-01-15T13:21:21.017Z,19.07
2018-01-15T13:23:49.086Z,13.57
2018-01-15T13:26:16.712Z,13.27
2018-01-15T13:28:44.266Z,13.60
2018-01-15T13:31:11.752Z,14.43
2018-01-15T13:33:39.281Z,15.85
2018-01-15T13:36:06.761Z,10.80
2018-01-15T13:38:34.996Z,12.13
2018-01-15T13:41:02.683Z,14.35
2018-01-15T13:43:30.165Z,13.62
2018-01-15T13:45:57.681Z,11.50
2018-01-15T13:48:25.191Z,14.77
2018-01-15T13:50:52.747Z,12.10
2018-01-15T13:53:20.249Z,13.60
2018-01-15T13:55:47.743Z,18.12
2018-01-15T13:58:15.228Z,16.62
2018-01-15T14:00:42.743Z,12.95
2018-01-15T14:03:10.227Z,14.57
2018-01-15T14:05:37.760Z,14.10
2018-01-15T14:08:05.268Z,16.35
2018-01-15T14:10:32.853Z,14.57
2018-01-15T14:13:00.336Z,14.77
2018-01-15T14:15:27.793Z,16.98
2018-01-15T14:17:55.273Z,14.38
2018-01-15T14:20:22.940Z,15.70
2018-01-15T14:22:50.428Z,15.80
2018-01-15T14:25:17.938Z,16.90
2018-01-15T14:27:45.405Z,14.60
2018-01-15T14:30:12.914Z,16.10
2018-01-15T14:32:40.395Z,13.93
2018-01-15T14:35:07.882Z,14.57
2018-01-15T14:37:35.355Z,14.18
2018-01-15T14:40:02.843Z,15.57
2018-01-15T14:42:31.699Z,17.45
2018-01-15T14:44:59.182Z,16.60
2018-01-15T14:47:26.693Z,15.73
2018-01-15T14:49:54.176Z,14.05
2018-01-15T14:52:21.656Z,17.17
2018-01-15T14:54:49.436Z,15.07
2018-01-15T14:57:17.007Z,17.73
2018-01-15T14:59:44.520Z,16.73
2018-01-15T15:02:12.013Z,14.70
2018-01-15T15:04:39.535Z,16.15
2018-01-15T15:07:07.018Z,15.82
2018-01-15T15:09:34.510Z,16.80
2018-01-15T15:12:02.018Z,15.98
2018-01-15T15:14:29.559Z,16.75
2018-01-15T15:16:57.090Z,15.07
2018-01-15T15:19:24.555Z,15.32
2018-01-15T15:21:52.095Z,16.10
2018-01-15T15:24:19.587Z,15.20
2018-01-15T15:26:47.110Z,16.42
2018-01-15T15:29:14.936Z,16.70
2018-01-15T15:31:42.486Z,15.15
2018-01-15T15:34:09.970Z,13.93
2018-01-15T15:36:37.527Z,14.05
2018-01-15T15:39:05.073Z,15.90
2018-01-15T15:41:32.657Z,17.62
2018-01-15T15:44:00.285Z,18.23
2018-01-15T15:46:27.785Z,17.62
2018-01-15T15:48:55.506Z,15.30
2018-01-15T15:51:23.092Z,14.55
2018-01-15T15:53:50.615Z,16.60
2018-01-15T15:56:18.156Z,16.12
2018-01-15T15:58:45.710Z,16.37
2018-01-15T16:01:13.231Z,16.45
2018-01-15T16:03:40.743Z,13.43
2018-01-15T16:06:08.240Z,18.55
2018-01-15T16:08:36.356Z,15.88
2018-01-15T16:11:03.875Z,17.95
2018-01-15T16:13:31.367Z,17.60
2018-01-15T16:15:58.877Z,20.55
2018-01-15T16:18:26.548Z,21.23
2018-01-15T16:20:54.131Z,18.10
2018-01-15T16:23:21.591Z,18.35
2018-01-15T16:25:49.893Z,19.23
2018-01-15T16:28:17.747Z,20.85
2018-01-15T16:30:45.246Z,18.62
2018-01-15T16:33:12.721Z,18.60
2018-01-15T16:35:40.263Z,17.35
2018-01-15T16:38:07.783Z,20.50
2018-01-15T16:40:35.837Z,18.67
2018-01-15T16:43:03.467Z,23.35
2018-01-15T16:45:30.990Z,22.98
2018-01-15T16:47:58.493Z,16.95
2018-01-15T16:50:25.998Z,21.05
2018-01-15T16:52:53.557Z,22.25
2018-01-15T16:55:21.076Z,19.37
2018-01-15T16:57:48.562Z,18.60
2018-01-15T17:00:16.174Z,17.85
2018-01-15T17:02:44.629Z,22.27
2018-01-15T17:05:12.169Z,18.77
2018-01-15T17:07:39.668Z,20.73
2018-01-15T17:10:07.175Z,16.67
2018-01-15T17:12:34.654Z,21.42
2018-01-15T17:15:02.314Z,22.60
2018-01-15T17:17:29.800Z,24.85
2018-01-15T17:19:57.288Z,20.80
2018-01-15T17:22:24.751Z,16.73
2018-01-15T17:24:52.365Z,20.30
2018-01-15T17:27:20.274Z,19.67
2018-01-15T17:29:47.769Z,23.15
2018-01-15T17:32:15.385Z,21.77
2018-01-15T17:34:42.884Z,23.60
2018-01-15T17:37:10.424Z,25.75
2018-01-15T17:39:37.905Z,21.35
2018-01-15T17:42:05.420Z,20.20
2018-01-15T17:44:32.908Z,21.70
2018-01-15T17:47:00.400Z,27.15
2018-01-15T17:49:27.911Z,23.92
2018-01-15T17:51:55.520Z,22.80
2018-01-15T17:54:23.259Z,22.17
2018-01-15T17:56:50.758Z,35.83
2018-01-15T17:59:18.247Z,39.22
2018-01-15T18:01:45.739Z,24.15
2018-01-15T18:04:13.242Z,26.67
2018-01-15T18:06:40.748Z,29.10
2018-01-15T18:09:08.222Z,26.25
2018-01-15T18:11:35.727Z,24.63
2018-01-15T18:14:03.216Z,27.08
2018-01-15T18:16:30.762Z,28.55
2018-01-15T18:18:58.801Z,25.23
2018-01-15T18:21:26.286Z,29.33
2018-01-15T18:23:53.765Z,28.87
2018-01-15T18:26:21.324Z,25.45
2018-01-15T18:28:48.815Z,28.70
2018-01-15T18:31:16.321Z,28.38
2018-01-15T18:33:43.962Z,30.48
2018-01-15T18:36:11.459Z,28.80
2018-01-15T18:38:38.968Z,25.85
2018-01-15T18:41:06.451Z,30.60
2018-01-15T18:43:33.993Z,30.67
2018-01-15T18:46:01.488Z,29.98
2018-01-15T18:48:30.408Z,28.85
2018-01-15T18:50:57.897Z,26.17
2018-01-15T18:53:25.398Z,31.98
2018-01-15T18:55:52.881Z,30.65
2018-01-15T18:58:20.390Z,27.30
2018-01-15T19:00:48.280Z,29.52
2018-01-15T19:03:16.000Z,31.67
2018-01-15T19:05:43.497Z,32.33
2018-01-15T19:08:11.216Z,31.23
2018-01-15T19:10:38.991Z,32.25
2018-01-15T19:13:06.512Z,31.10
2018-01-15T19:15:34.005Z,35.33
2018-01-15T19:18:01.490Z,31.83
2018-01-15T19:20:28.979Z,30.73
2018-01-15T19:22:56.476Z,28.80
2018-01-15T19:25:23.975Z,34.50
2018-01-15T19:27:51.467Z,35.25
2018-01-15T19:30:18.992Z,31.02
2018-01-15T19:32:46.503Z,37.05
2018-01-15T19:35:13.999Z,30.70
2018-01-15T19:37:56.367Z,36.70
2018-01-15T19:40:23.848Z,34.08
2018-01-15T19:42:51.736Z,30.92
2018-01-15T19:45:24.898Z,32.60
2018-01-15T19:47:57.803Z,34.50
2018-01-15T19:50:30.831Z,37.50
2018-01-15T19:53:03.922Z,36.85
2018-01-15T19:55:36.958Z,39.88
2018-01-15T20:01:11.364Z,43.03
2018-01-15T20:03:44.508Z,40.22
2018-01-15T20:06:17.700Z,35.97
2018-01-15T20:08:50.593Z,41.95
2018-01-15T20:11:18.998Z,39.20
2018-01-15T20:13:46.472Z,33.88
2018-01-15T20:16:13.943Z,36.85
2018-01-15T20:18:41.414Z,39.58
2018-01-15T20:21:08.869Z,37.45
2018-01-15T20:23:36.338Z,38.70
2018-01-15T20:26:03.832Z,36.00
2018-01-15T20:28:31.274Z,37.75
2018-01-15T20:30:58.792Z,41.08
2018-01-15T20:33:26.293Z,37.95
2018-01-15T20:35:53.806Z,38.05
2018-01-15T20:38:21.292Z,42.20
2018-01-15T20:40:48.766Z,41.47
2018-01-15T20:43:16.220Z,41.60
2018-01-15T20:45:43.684Z,39.45
2018-01-15T20:48:11.139Z,43.53
2018-01-15T20:50:38.670Z,36.67
2018-01-15T20:53:06.129Z,41.45
2018-01-15T20:55:33.630Z,40.12
2018-01-15T20:58:01.109Z,45.12
2018-01-15T21:00:28.908Z,39.80
2018-01-15T21:02:56.407Z,37.25
2018-01-15T21:05:23.879Z,40.60
2018-01-15T21:07:51.368Z,35.17
2018-01-15T21:10:19.065Z,37.67
2018-01-15T21:12:46.556Z,37.53
2018-01-15T21:15:14.011Z,39.50
2018-01-15T21:17:41.453Z,38.55
2018-01-15T21:20:08.951Z,35.05
2018-01-15T21:22:36.661Z,40.85
2018-01-15T21:25:04.154Z,45.12
2018-01-15T21:27:31.651Z,39.65
2018-01-15T21:29:59.141Z,38.03
2018-01-15T21:32:26.591Z,37.78
2018-01-15T21:34:54.043Z,43.50
2018-01-15T21:37:21.538Z,38.92
2018-01-15T21:39:49.016Z,33.25
2018-01-15T21:42:16.493Z,35.97
2018-01-15T21:44:43.985Z,34.85
2018-01-15T21:47:11.458Z,33.80
2018-01-15T21:49:38.961Z,40.75
2018-01-15T21:52:06.440Z,36.55
2018-01-15T21:54:34.074Z,35.60
2018-01-15T21:57:01.569Z,39.55
2018-01-15T21:59:29.043Z,37.72
2018-01-15T22:01:56.516Z,37.22
2018-01-15T22:04:23.976Z,37.03
2018-01-15T22:06:51.535Z,32.92
2018-01-15T22:09:19.513Z,40.28
2018-01-15T22:11:47.067Z,37.33
2018-01-15T22:14:14.579Z,39.25
2018-01-15T22:16:42.018Z,41.10
2018-01-15T22:19:09.494Z,36.95
2018-01-15T22:21:37.016Z,38.22
2018-01-15T22:24:04.482Z,39.22
2018-01-15T22:26:31.975Z,37.00
2018-01-15T22:28:59.434Z,35.20
2018-01-15T22:31:26.909Z,35.92
2018-01-15T22:33:54.390Z,34.42
2018-01-15T22:36:21.926Z,35.65
2018-01-15T22:38:49.448Z,38.25
2018-01-15T22:41:16.906Z,38.65
2018-01-15T22:43:44.371Z,37.75
2018-01-15T22:46:11.935Z,37.38
2018-01-15T22:48:39.442Z,43.10
2018-01-15T22:51:06.931Z,44.60
2018-01-15T22:53:34.394Z,41.67
2018-01-15T22:56:01.898Z,42.40
2018-01-15T22:58:29.651Z,36.72
2018-01-15T23:00:57.131Z,42.88
2018-01-15T23:03:24.615Z,41.83
2018-01-15T23:05:52.083Z,38.10
2018-01-15T23:08:19.634Z,38.85
2018-01-15T23:10:47.127Z,36.05
2018-01-15T23:13:14.690Z,39.70
2018-01-15T23:15:42.148Z,41.63
2018-01-15T23:18:09.617Z,39.67
2018-01-15T23:20:37.678Z,37.15
2018-01-15T23:23:05.204Z,37.30
2018-01-15T23:25:32.690Z,37.35
2018-01-15T23:28:00.137Z,37.67
2018-01-15T23:30:27.871Z,40.72
2018-01-15T23:32:55.387Z,36.65
2018-01-15T23:35:22.836Z,36.95
2018-01-15T23:37:50.289Z,40.75
2018-01-15T23:40:17.771Z,35.90
2018-01-15T23:42:45.236Z,39.33
2018-01-15T23:45:12.739Z,38.13
2018-01-15T23:47:40.216Z,41.50
2018-01-15T23:50:07.670Z,41.00
2018-01-15T23:52:35.441Z,41.10
2018-01-15T23:55:02.906Z,35.88
2018-01-15T23:57:30.367Z,40.90
2018-01-15T23:59:57.837Z,43.00
